PWSweather.com
Personal Weather Stations
Station Observations
2450ARBOR
Round Rock, TX 78681

Round Rock, TX 78681

Lat: 30.535239, Lon: -97.728137

Elevation: 800

Station Type:

Latest ConditionsUpdated 2:21:15 AM CDT Tuesday, Aug 22, 2017
Currently Today's Max Today's Min Today's Average
Temperature 80.6°F27.0°C 84.4°F29.1°C 80.6°F27.0°C 82.5°F28.1°C
Dew Point 72.7°F22.6°C 74.1°F23.4°C 72.7°F22.6°C 73.6°F23.1°C
Winds Calm Calm 5.3 mph SSW8.5 kmh SSW - 1.2 mph 1.9 kmh
Wind Gusts -- 5.3 mph8.5 kmh - -
Humidity 77% 77% 70% 75%
Pressure 29.26 in990.9 mb 29.29 in991.9 mb 29.26 in990.9 mb -
Hour Temp Dew Point Humidity Winds Wind Gusts Pressure Precip Precip Rate Daily Precip Total
02:21 AM 80.6°F27.0°C 72.7°F22.6°C 77% Calm Calm -- 29.26 in990.9 mb 0.00 in0.0 mm 0.00 in0.0 mm 0.00 in0.0 mm
02:20 AM 80.6°F27.0°C 72.7°F22.6°C 77% Calm Calm -- 29.26 in990.9 mb 0.00 in0.0 mm 0.00 in0.0 mm 0.00 in0.0 mm
02:19 AM 80.6°F27.0°C 72.7°F22.6°C 77% Calm Calm -- 29.26 in990.9 mb 0.00 in0.0 mm 0.00 in0.0 mm 0.00 in0.0 mm
02:18 AM 80.8°F27.1°C 72.9°F22.7°C 77% Calm Calm -- 29.26 in990.9 mb 0.00 in0.0 mm 0.00 in0.0 mm 0.00 in0.0 mm
02:17 AM 80.8°F27.1°C 72.9°F22.7°C 77% Calm Calm -- 29.26 in990.9 mb 0.00 in0.0 mm 0.00 in0.0 mm 0.00 in0.0 mm
02:16 AM 80.8°F27.1°C 72.9°F22.7°C 77% Calm Calm 1.1 mph1.8 kmh 29.26 in990.9 mb 0.00 in0.0 mm 0.00 in0.0 mm 0.00 in0.0 mm
02:15 AM 80.8°F27.1°C 72.9°F22.7°C 77% Calm Calm 1.7 mph2.7 kmh 29.26 in990.9 mb 0.00 in0.0 mm 0.00 in0.0 mm 0.00 in0.0 mm
02:14 AM 81.0°F27.2°C 73.1°F22.8°C 77% Calm Calm 2.7 mph4.3 kmh 29.26 in990.9 mb 0.00 in0.0 mm 0.00 in0.0 mm 0.00 in0.0 mm
02:13 AM 81.0°F27.2°C 73.1°F22.8°C 77% Calm Calm 2.7 mph4.3 kmh 29.26 in990.9 mb 0.00 in0.0 mm 0.00 in0.0 mm 0.00 in0.0 mm
02:12 AM 81.0°F27.2°C 73.1°F22.8°C 77% Calm Calm 2.7 mph4.3 kmh 29.26 in990.9 mb 0.00 in0.0 mm 0.00 in0.0 mm 0.00 in0.0 mm
02:11 AM 81.0°F27.2°C 73.1°F22.8°C 77% Calm Calm 2.7 mph4.3 kmh 29.26 in990.9 mb 0.00 in0.0 mm 0.00 in0.0 mm 0.00 in0.0 mm
02:10 AM 81.0°F27.2°C 73.1°F22.8°C 77% Calm Calm 2.7 mph4.3 kmh 29.26 in990.9 mb 0.00 in0.0 mm 0.00 in0.0 mm 0.00 in0.0 mm
02:09 AM 81.0°F27.2°C 73.1°F22.8°C 77% Calm Calm 2.7 mph4.3 kmh 29.26 in990.9 mb 0.00 in0.0 mm 0.00 in0.0 mm 0.00 in0.0 mm
02:08 AM 81.1°F27.3°C 73.2°F22.9°C 77% Calm Calm 2.7 mph4.3 kmh 29.26 in990.9 mb 0.00 in0.0 mm 0.00 in0.0 mm 0.00 in0.0 mm
02:07 AM 81.1°F27.3°C 73.2°F22.9°C 77% Calm Calm 2.7 mph4.3 kmh 29.26 in990.9 mb 0.00 in0.0 mm 0.00 in0.0 mm 0.00 in0.0 mm
02:06 AM 81.1°F27.3°C 73.2°F22.9°C 77% 1.1 mph SSW1.8 kmh SSW 2.7 mph4.3 kmh 29.26 in990.9 mb 0.00 in0.0 mm 0.00 in0.0 mm 0.00 in0.0 mm
02:05 AM 81.1°F27.3°C 73.2°F22.9°C 77% 1.7 mph SSW2.7 kmh SSW 2.7 mph4.3 kmh 29.26 in990.9 mb 0.00 in0.0 mm 0.00 in0.0 mm 0.00 in0.0 mm
02:04 AM 81.1°F27.3°C 73.2°F22.9°C 77% Calm Calm 2.2 mph3.5 kmh 29.26 in990.9 mb 0.00 in0.0 mm 0.00 in0.0 mm 0.00 in0.0 mm
02:03 AM 81.1°F27.3°C 73.2°F22.9°C 77% Calm Calm 3.2 mph5.1 kmh 29.27 in991.2 mb 0.00 in0.0 mm 0.00 in0.0 mm 0.00 in0.0 mm
02:02 AM 81.1°F27.3°C 73.2°F22.9°C 77% Calm Calm 3.7 mph6.0 kmh 29.27 in991.2 mb 0.00 in0.0 mm 0.00 in0.0 mm 0.00 in0.0 mm
02:01 AM 81.1°F27.3°C 73.2°F22.9°C 77% Calm Calm 3.7 mph6.0 kmh 29.27 in991.2 mb 0.00 in0.0 mm 0.00 in0.0 mm 0.00 in0.0 mm
02:00 AM 81.3°F27.4°C 73.4°F23.0°C 77% Calm Calm 3.7 mph6.0 kmh 29.27 in991.2 mb 0.00 in0.0 mm 0.00 in0.0 mm 0.00 in0.0 mm
01:59 AM 81.3°F27.4°C 73.4°F23.0°C 77% Calm Calm 3.7 mph6.0 kmh 29.27 in991.2 mb 0.00 in0.0 mm 0.00 in0.0 mm 0.00 in0.0 mm
01:58 AM 81.3°F27.4°C 73.4°F23.0°C 77% Calm Calm 3.7 mph6.0 kmh 29.27 in991.2 mb 0.00 in0.0 mm 0.00 in0.0 mm 0.00 in0.0 mm
01:57 AM 81.3°F27.4°C 73.4°F23.0°C 77% 1.7 mph SSW2.7 kmh SSW 3.7 mph6.0 kmh 29.27 in991.2 mb 0.00 in0.0 mm 0.00 in0.0 mm 0.00 in0.0 mm
01:56 AM 81.3°F27.4°C 73.4°F23.0°C 77% 1.7 mph WSW2.7 kmh WSW 3.7 mph6.0 kmh 29.27 in991.2 mb 0.00 in0.0 mm 0.00 in0.0 mm 0.00 in0.0 mm
01:55 AM 81.3°F27.4°C 73.4°F23.0°C 77% 1.1 mph S1.8 kmh S 3.7 mph6.0 kmh 29.27 in991.2 mb 0.00 in0.0 mm 0.00 in0.0 mm 0.00 in0.0 mm
01:54 AM 81.3°F27.4°C 73.4°F23.0°C 77% 1.1 mph SSW1.8 kmh SSW 3.7 mph6.0 kmh 29.27 in991.2 mb 0.00 in0.0 mm 0.00 in0.0 mm 0.00 in0.0 mm
01:53 AM 81.3°F27.4°C 73.4°F23.0°C 77% 3.2 mph SSW5.1 kmh SSW 3.7 mph6.0 kmh 29.27 in991.2 mb 0.00 in0.0 mm 0.00 in0.0 mm 0.00 in0.0 mm
01:52 AM 81.3°F27.4°C 73.4°F23.0°C 77% 3.7 mph SSW6.0 kmh SSW 3.7 mph6.0 kmh 29.27 in991.2 mb 0.00 in0.0 mm 0.00 in0.0 mm 0.00 in0.0 mm
01:51 AM 81.3°F27.4°C 73.4°F23.0°C 77% 1.7 mph SSW2.7 kmh SSW 3.7 mph6.0 kmh 29.27 in991.2 mb 0.00 in0.0 mm 0.00 in0.0 mm 0.00 in0.0 mm
01:50 AM 81.3°F27.4°C 73.4°F23.0°C 77% 1.1 mph SSW1.8 kmh SSW 3.7 mph6.0 kmh 29.27 in991.2 mb 0.00 in0.0 mm 0.00 in0.0 mm 0.00 in0.0 mm
01:49 AM 81.3°F27.4°C 73.4°F23.0°C 77% 1.1 mph SSW1.8 kmh SSW 3.7 mph6.0 kmh 29.27 in991.2 mb 0.00 in0.0 mm 0.00 in0.0 mm 0.00 in0.0 mm
01:48 AM 81.3°F27.4°C 73.4°F23.0°C 77% 2.7 mph SSW4.3 kmh SSW 3.7 mph6.0 kmh 29.27 in991.2 mb 0.00 in0.0 mm 0.00 in0.0 mm 0.00 in0.0 mm
01:47 AM 81.5°F27.5°C 73.6°F23.1°C 77% 2.7 mph SW4.3 kmh SW 3.7 mph6.0 kmh 29.27 in991.2 mb 0.00 in0.0 mm 0.00 in0.0 mm 0.00 in0.0 mm
01:46 AM 81.5°F27.5°C 73.6°F23.1°C 77% 3.7 mph SSW6.0 kmh SSW 3.7 mph6.0 kmh 29.27 in991.2 mb 0.00 in0.0 mm 0.00 in0.0 mm 0.00 in0.0 mm
01:45 AM 81.7°F27.6°C 73.4°F23.0°C 76% Calm Calm 4.2 mph6.8 kmh 29.27 in991.2 mb 0.00 in0.0 mm 0.00 in0.0 mm 0.00 in0.0 mm
01:44 AM 81.7°F27.6°C 73.4°F23.0°C 76% Calm Calm 4.2 mph6.8 kmh 29.27 in991.2 mb 0.00 in0.0 mm 0.00 in0.0 mm 0.00 in0.0 mm
01:43 AM 81.7°F27.6°C 73.4°F23.0°C 76% Calm Calm 4.2 mph6.8 kmh 29.27 in991.2 mb 0.00 in0.0 mm 0.00 in0.0 mm 0.00 in0.0 mm
01:42 AM 81.7°F27.6°C 73.4°F23.0°C 76% Calm Calm 4.2 mph6.8 kmh 29.27 in991.2 mb 0.00 in0.0 mm 0.00 in0.0 mm 0.00 in0.0 mm
01:41 AM 81.7°F27.6°C 73.4°F23.0°C 76% Calm Calm 4.2 mph6.8 kmh 29.27 in991.2 mb 0.00 in0.0 mm 0.00 in0.0 mm 0.00 in0.0 mm
01:40 AM 81.7°F27.6°C 73.4°F23.0°C 76% Calm Calm 4.2 mph6.8 kmh 29.27 in991.2 mb 0.00 in0.0 mm 0.00 in0.0 mm 0.00 in0.0 mm
01:39 AM 81.7°F27.6°C 73.4°F23.0°C 76% Calm Calm 4.7 mph7.6 kmh 29.27 in991.2 mb 0.00 in0.0 mm 0.00 in0.0 mm 0.00 in0.0 mm
01:38 AM 81.7°F27.6°C 73.4°F23.0°C 76% Calm Calm 4.7 mph7.6 kmh 29.27 in991.2 mb 0.00 in0.0 mm 0.00 in0.0 mm 0.00 in0.0 mm
01:37 AM 81.7°F27.6°C 73.4°F23.0°C 76% Calm Calm 4.7 mph7.6 kmh 29.27 in991.2 mb 0.00 in0.0 mm 0.00 in0.0 mm 0.00 in0.0 mm
01:36 AM 81.7°F27.6°C 73.4°F23.0°C 76% 1.1 mph SW1.8 kmh SW 4.7 mph7.6 kmh 29.27 in991.2 mb 0.00 in0.0 mm 0.00 in0.0 mm 0.00 in0.0 mm
01:35 AM 81.7°F27.6°C 73.4°F23.0°C 76% 2.7 mph SSW4.3 kmh SSW 4.7 mph7.6 kmh 29.27 in991.2 mb 0.00 in0.0 mm 0.00 in0.0 mm 0.00 in0.0 mm
01:34 AM 81.9°F27.7°C 73.6°F23.1°C 76% 3.2 mph SW5.1 kmh SW 4.7 mph7.6 kmh 29.27 in991.2 mb 0.00 in0.0 mm 0.00 in0.0 mm 0.00 in0.0 mm
01:33 AM 81.9°F27.7°C 73.6°F23.1°C 76% 1.1 mph SSW1.8 kmh SSW 4.7 mph7.6 kmh 29.27 in991.2 mb 0.00 in0.0 mm 0.00 in0.0 mm 0.00 in0.0 mm
01:32 AM 81.9°F27.7°C 73.6°F23.1°C 76% 3.7 mph S6.0 kmh S 4.7 mph7.6 kmh 29.27 in991.2 mb 0.00 in0.0 mm 0.00 in0.0 mm 0.00 in0.0 mm
01:31 AM 81.9°F27.7°C 73.6°F23.1°C 76% 3.2 mph S5.1 kmh S 4.7 mph7.6 kmh 29.27 in991.2 mb 0.00 in0.0 mm 0.00 in0.0 mm 0.00 in0.0 mm
01:30 AM 81.9°F27.7°C 73.6°F23.1°C 76% 1.1 mph S1.8 kmh S 4.7 mph7.6 kmh 29.27 in991.2 mb 0.00 in0.0 mm 0.00 in0.0 mm 0.00 in0.0 mm
01:29 AM 81.9°F27.7°C 73.6°F23.1°C 76% 4.7 mph NNE7.6 kmh NNE 4.7 mph7.6 kmh 29.27 in991.2 mb 0.00 in0.0 mm 0.00 in0.0 mm 0.00 in0.0 mm
01:28 AM 81.9°F27.7°C 73.6°F23.1°C 76% 1.7 mph SSW2.7 kmh SSW 3.7 mph6.0 kmh 29.27 in991.2 mb 0.00 in0.0 mm 0.00 in0.0 mm 0.00 in0.0 mm
01:27 AM 81.9°F27.7°C 73.6°F23.1°C 76% 2.2 mph SW3.5 kmh SW 3.7 mph6.0 kmh 29.27 in991.2 mb 0.00 in0.0 mm 0.00 in0.0 mm 0.00 in0.0 mm
01:26 AM 82.0°F27.8°C 73.7°F23.2°C 76% 2.2 mph SSW3.5 kmh SSW 3.7 mph6.0 kmh 29.27 in991.2 mb 0.00 in0.0 mm 0.00 in0.0 mm 0.00 in0.0 mm
01:25 AM 82.0°F27.8°C 73.7°F23.2°C 76% 1.1 mph S1.8 kmh S 3.7 mph6.0 kmh 29.27 in991.2 mb 0.00 in0.0 mm 0.00 in0.0 mm 0.00 in0.0 mm
01:24 AM 82.0°F27.8°C 73.7°F23.2°C 76% 1.1 mph S1.8 kmh S 3.7 mph6.0 kmh 29.27 in991.2 mb 0.00 in0.0 mm 0.00 in0.0 mm 0.00 in0.0 mm
01:23 AM 82.0°F27.8°C 73.7°F23.2°C 76% 2.2 mph SW3.5 kmh SW 3.7 mph6.0 kmh 29.27 in991.2 mb 0.00 in0.0 mm 0.00 in0.0 mm 0.00 in0.0 mm
01:22 AM 82.0°F27.8°C 73.3°F22.9°C 75% 1.7 mph SW2.7 kmh SW 3.7 mph6.0 kmh 29.27 in991.2 mb 0.00 in0.0 mm 0.00 in0.0 mm 0.00 in0.0 mm
01:21 AM 82.0°F27.8°C 73.3°F22.9°C 75% 1.1 mph SSW1.8 kmh SSW 3.7 mph6.0 kmh 29.27 in991.2 mb 0.00 in0.0 mm 0.00 in0.0 mm 0.00 in0.0 mm
01:20 AM 82.2°F27.9°C 73.5°F23.1°C 75% 1.1 mph SSW1.8 kmh SSW 3.7 mph6.0 kmh 29.27 in991.2 mb 0.00 in0.0 mm 0.00 in0.0 mm 0.00 in0.0 mm
01:19 AM 82.2°F27.9°C 73.5°F23.1°C 75% 2.2 mph SW3.5 kmh SW 3.7 mph6.0 kmh 29.27 in991.2 mb 0.00 in0.0 mm 0.00 in0.0 mm 0.00 in0.0 mm
01:18 AM 82.2°F27.9°C 73.5°F23.1°C 75% 2.2 mph SSW3.5 kmh SSW 2.2 mph3.5 kmh 29.27 in991.2 mb 0.00 in0.0 mm 0.00 in0.0 mm 0.00 in0.0 mm
01:17 AM 82.2°F27.9°C 73.5°F23.1°C 75% Calm Calm -- 29.27 in991.2 mb 0.00 in0.0 mm 0.00 in0.0 mm 0.00 in0.0 mm
01:16 AM 82.2°F27.9°C 73.5°F23.1°C 75% Calm Calm -- 29.27 in991.2 mb 0.00 in0.0 mm 0.00 in0.0 mm 0.00 in0.0 mm
01:15 AM 82.4°F28.0°C 73.7°F23.2°C 75% Calm Calm -- 29.28 in991.5 mb 0.00 in0.0 mm 0.00 in0.0 mm 0.00 in0.0 mm
01:14 AM 82.4°F28.0°C 73.7°F23.2°C 75% Calm Calm -- 29.28 in991.5 mb 0.00 in0.0 mm 0.00 in0.0 mm 0.00 in0.0 mm
01:13 AM 82.4°F28.0°C 73.7°F23.2°C 75% Calm Calm -- 29.28 in991.5 mb 0.00 in0.0 mm 0.00 in0.0 mm 0.00 in0.0 mm
01:12 AM 82.4°F28.0°C 73.7°F23.2°C 75% Calm Calm -- 29.28 in991.5 mb 0.00 in0.0 mm 0.00 in0.0 mm 0.00 in0.0 mm
01:11 AM 82.4°F28.0°C 73.7°F23.2°C 75% Calm Calm -- 29.28 in991.5 mb 0.00 in0.0 mm 0.00 in0.0 mm 0.00 in0.0 mm
01:10 AM 82.4°F28.0°C 73.7°F23.2°C 75% Calm Calm -- 29.28 in991.5 mb 0.00 in0.0 mm 0.00 in0.0 mm 0.00 in0.0 mm
01:09 AM 82.6°F28.1°C 73.9°F23.3°C 75% Calm Calm 2.2 mph3.5 kmh 29.28 in991.5 mb 0.00 in0.0 mm 0.00 in0.0 mm 0.00 in0.0 mm
01:08 AM 82.6°F28.1°C 73.9°F23.3°C 75% Calm Calm 3.2 mph5.1 kmh 29.28 in991.5 mb 0.00 in0.0 mm 0.00 in0.0 mm 0.00 in0.0 mm
01:07 AM 82.6°F28.1°C 73.9°F23.3°C 75% Calm Calm 3.2 mph5.1 kmh 29.28 in991.5 mb 0.00 in0.0 mm 0.00 in0.0 mm 0.00 in0.0 mm
01:06 AM 82.8°F28.2°C 73.6°F23.1°C 74% Calm Calm 3.2 mph5.1 kmh 29.28 in991.5 mb 0.00 in0.0 mm 0.00 in0.0 mm 0.00 in0.0 mm
01:05 AM 82.8°F28.2°C 73.6°F23.1°C 74% Calm Calm 3.2 mph5.1 kmh 29.28 in991.5 mb 0.00 in0.0 mm 0.00 in0.0 mm 0.00 in0.0 mm
01:04 AM 82.8°F28.2°C 73.6°F23.1°C 74% Calm Calm 3.2 mph5.1 kmh 29.28 in991.5 mb 0.00 in0.0 mm 0.00 in0.0 mm 0.00 in0.0 mm
01:03 AM 82.8°F28.2°C 73.6°F23.1°C 74% Calm Calm 3.2 mph5.1 kmh 29.28 in991.5 mb 0.00 in0.0 mm 0.00 in0.0 mm 0.00 in0.0 mm
01:02 AM 82.8°F28.2°C 73.6°F23.1°C 74% Calm Calm 3.2 mph5.1 kmh 29.28 in991.5 mb 0.00 in0.0 mm 0.00 in0.0 mm 0.00 in0.0 mm
01:01 AM 82.9°F28.3°C 73.7°F23.2°C 74% Calm Calm 4.7 mph7.6 kmh 29.28 in991.5 mb 0.00 in0.0 mm 0.00 in0.0 mm 0.00 in0.0 mm
01:00 AM 82.9°F28.3°C 73.7°F23.2°C 74% Calm Calm 4.7 mph7.6 kmh 29.28 in991.5 mb 0.00 in0.0 mm 0.00 in0.0 mm 0.00 in0.0 mm
12:59 AM 82.9°F28.3°C 73.7°F23.2°C 74% 1.7 mph SSW2.7 kmh SSW 4.7 mph7.6 kmh 29.28 in991.5 mb 0.00 in0.0 mm 0.00 in0.0 mm 0.00 in0.0 mm
12:58 AM 82.9°F28.3°C 73.7°F23.2°C 74% 3.2 mph SSW5.1 kmh SSW 4.7 mph7.6 kmh 29.28 in991.5 mb 0.00 in0.0 mm 0.00 in0.0 mm 0.00 in0.0 mm
12:57 AM 82.9°F28.3°C 73.7°F23.2°C 74% 2.2 mph SSW3.5 kmh SSW 4.7 mph7.6 kmh 29.28 in991.5 mb 0.00 in0.0 mm 0.00 in0.0 mm 0.00 in0.0 mm
12:56 AM 82.9°F28.3°C 73.7°F23.2°C 74% 2.7 mph SSW4.3 kmh SSW 4.7 mph7.6 kmh 29.28 in991.5 mb 0.00 in0.0 mm 0.00 in0.0 mm 0.00 in0.0 mm
12:55 AM 82.9°F28.3°C 73.7°F23.2°C 74% 2.7 mph SW4.3 kmh SW 4.7 mph7.6 kmh 29.28 in991.5 mb 0.00 in0.0 mm 0.00 in0.0 mm 0.00 in0.0 mm
12:54 AM 83.1°F28.4°C 73.9°F23.3°C 74% 1.7 mph SSW2.7 kmh SSW 4.7 mph7.6 kmh 29.28 in991.5 mb 0.00 in0.0 mm 0.00 in0.0 mm 0.00 in0.0 mm
12:53 AM 83.1°F28.4°C 73.9°F23.3°C 74% Calm Calm 4.7 mph7.6 kmh 29.28 in991.5 mb 0.00 in0.0 mm 0.00 in0.0 mm 0.00 in0.0 mm
12:52 AM 83.1°F28.4°C 73.9°F23.3°C 74% 1.1 mph S1.8 kmh S 4.7 mph7.6 kmh 29.28 in991.5 mb 0.00 in0.0 mm 0.00 in0.0 mm 0.00 in0.0 mm
12:51 AM 83.1°F28.4°C 73.9°F23.3°C 74% 4.7 mph SSW7.6 kmh SSW 4.7 mph7.6 kmh 29.28 in991.5 mb 0.00 in0.0 mm 0.00 in0.0 mm 0.00 in0.0 mm
12:50 AM 83.1°F28.4°C 73.9°F23.3°C 74% 1.1 mph SSW1.8 kmh SSW 4.7 mph7.6 kmh 29.28 in991.5 mb 0.00 in0.0 mm 0.00 in0.0 mm 0.00 in0.0 mm
12:49 AM 83.1°F28.4°C 73.9°F23.3°C 74% 1.1 mph SSE1.8 kmh SSE 4.7 mph7.6 kmh 29.28 in991.5 mb 0.00 in0.0 mm 0.00 in0.0 mm 0.00 in0.0 mm
12:48 AM 83.1°F28.4°C 73.9°F23.3°C 74% 4.2 mph SSW6.8 kmh SSW 4.7 mph7.6 kmh 29.28 in991.5 mb 0.00 in0.0 mm 0.00 in0.0 mm 0.00 in0.0 mm
12:47 AM 83.1°F28.4°C 73.9°F23.3°C 74% 2.2 mph SW3.5 kmh SW 4.7 mph7.6 kmh 29.28 in991.5 mb 0.00 in0.0 mm 0.00 in0.0 mm 0.00 in0.0 mm
12:46 AM 83.1°F28.4°C 73.9°F23.3°C 74% 2.7 mph SSW4.3 kmh SSW 4.7 mph7.6 kmh 29.28 in991.5 mb 0.00 in0.0 mm 0.00 in0.0 mm 0.00 in0.0 mm
12:45 AM 83.1°F28.4°C 73.9°F23.3°C 74% Calm Calm 5.3 mph8.5 kmh 29.28 in991.5 mb 0.00 in0.0 mm 0.00 in0.0 mm 0.00 in0.0 mm
12:44 AM 83.1°F28.4°C 73.9°F23.3°C 74% 3.2 mph W5.1 kmh W 5.3 mph8.5 kmh 29.28 in991.5 mb 0.00 in0.0 mm 0.00 in0.0 mm 0.00 in0.0 mm
12:43 AM 83.1°F28.4°C 73.9°F23.3°C 74% 1.1 mph SSW1.8 kmh SSW 5.3 mph8.5 kmh 29.28 in991.5 mb 0.00 in0.0 mm 0.00 in0.0 mm 0.00 in0.0 mm
12:42 AM 83.1°F28.4°C 73.9°F23.3°C 74% 1.7 mph SSW2.7 kmh SSW 5.3 mph8.5 kmh 29.28 in991.5 mb 0.00 in0.0 mm 0.00 in0.0 mm 0.00 in0.0 mm
12:41 AM 83.1°F28.4°C 73.9°F23.3°C 74% Calm Calm 5.3 mph8.5 kmh 29.28 in991.5 mb 0.00 in0.0 mm 0.00 in0.0 mm 0.00 in0.0 mm
12:40 AM 83.3°F28.5°C 74.1°F23.4°C 74% 1.7 mph SW2.7 kmh SW 5.3 mph8.5 kmh 29.28 in991.5 mb 0.00 in0.0 mm 0.00 in0.0 mm 0.00 in0.0 mm
12:39 AM 83.3°F28.5°C 74.1°F23.4°C 74% 2.2 mph SSW3.5 kmh SSW 5.3 mph8.5 kmh 29.29 in991.9 mb 0.00 in0.0 mm 0.00 in0.0 mm 0.00 in0.0 mm
12:38 AM 83.3°F28.5°C 73.7°F23.2°C 73% 1.7 mph SSW2.7 kmh SSW 5.3 mph8.5 kmh 29.29 in991.9 mb 0.00 in0.0 mm 0.00 in0.0 mm 0.00 in0.0 mm
12:37 AM 83.3°F28.5°C 73.7°F23.2°C 73% 3.7 mph SW6.0 kmh SW 5.3 mph8.5 kmh 29.29 in991.9 mb 0.00 in0.0 mm 0.00 in0.0 mm 0.00 in0.0 mm
12:36 AM 83.3°F28.5°C 73.7°F23.2°C 73% 1.7 mph SSW2.7 kmh SSW 5.3 mph8.5 kmh 29.29 in991.9 mb 0.00 in0.0 mm 0.00 in0.0 mm 0.00 in0.0 mm
12:35 AM 83.5°F28.6°C 73.9°F23.3°C 73% 5.3 mph SSW8.5 kmh SSW 5.3 mph8.5 kmh 29.29 in991.9 mb 0.00 in0.0 mm 0.00 in0.0 mm 0.00 in0.0 mm
12:34 AM 83.5°F28.6°C 73.9°F23.3°C 73% 1.7 mph SSW2.7 kmh SSW 4.7 mph7.6 kmh 29.29 in991.9 mb 0.00 in0.0 mm 0.00 in0.0 mm 0.00 in0.0 mm
12:33 AM 83.5°F28.6°C 73.9°F23.3°C 73% 2.2 mph SW3.5 kmh SW 4.7 mph7.6 kmh 29.29 in991.9 mb 0.00 in0.0 mm 0.00 in0.0 mm 0.00 in0.0 mm
12:32 AM 83.7°F28.7°C 74.1°F23.4°C 73% Calm Calm 4.7 mph7.6 kmh 29.29 in991.9 mb 0.00 in0.0 mm 0.00 in0.0 mm 0.00 in0.0 mm
12:31 AM 83.7°F28.7°C 74.1°F23.4°C 73% 2.7 mph SSW4.3 kmh SSW 4.7 mph7.6 kmh 29.29 in991.9 mb 0.00 in0.0 mm 0.00 in0.0 mm 0.00 in0.0 mm
12:30 AM 83.7°F28.7°C 74.1°F23.4°C 73% 3.7 mph SW6.0 kmh SW 4.7 mph7.6 kmh 29.29 in991.9 mb 0.00 in0.0 mm 0.00 in0.0 mm 0.00 in0.0 mm
12:29 AM 83.7°F28.7°C 74.1°F23.4°C 73% 2.2 mph SSW3.5 kmh SSW 4.7 mph7.6 kmh 29.29 in991.9 mb 0.00 in0.0 mm 0.00 in0.0 mm 0.00 in0.0 mm
12:28 AM 83.7°F28.7°C 74.1°F23.4°C 73% 1.1 mph ESE1.8 kmh ESE 4.7 mph7.6 kmh 29.29 in991.9 mb 0.00 in0.0 mm 0.00 in0.0 mm 0.00 in0.0 mm
12:27 AM 83.7°F28.7°C 74.1°F23.4°C 73% 2.2 mph SW3.5 kmh SW 4.7 mph7.6 kmh 29.28 in991.5 mb 0.00 in0.0 mm 0.00 in0.0 mm 0.00 in0.0 mm
12:26 AM 83.7°F28.7°C 74.1°F23.4°C 73% 1.7 mph SSE2.7 kmh SSE 3.2 mph5.1 kmh 29.28 in991.5 mb 0.00 in0.0 mm 0.00 in0.0 mm 0.00 in0.0 mm
12:25 AM 83.7°F28.7°C 73.7°F23.2°C 72% 1.7 mph N2.7 kmh N 3.2 mph5.1 kmh 29.28 in991.5 mb 0.00 in0.0 mm 0.00 in0.0 mm 0.00 in0.0 mm
12:24 AM 83.7°F28.7°C 73.7°F23.2°C 72% Calm Calm 3.2 mph5.1 kmh 29.28 in991.5 mb 0.00 in0.0 mm 0.00 in0.0 mm 0.00 in0.0 mm
12:23 AM 83.7°F28.7°C 73.7°F23.2°C 72% Calm Calm 3.2 mph5.1 kmh 29.28 in991.5 mb 0.00 in0.0 mm 0.00 in0.0 mm 0.00 in0.0 mm
12:22 AM 83.7°F28.7°C 73.7°F23.2°C 72% Calm Calm 3.2 mph5.1 kmh 29.28 in991.5 mb 0.00 in0.0 mm 0.00 in0.0 mm 0.00 in0.0 mm
12:21 AM 83.7°F28.7°C 73.7°F23.2°C 72% 1.1 mph ESE1.8 kmh ESE 3.2 mph5.1 kmh 29.28 in991.5 mb 0.00 in0.0 mm 0.00 in0.0 mm 0.00 in0.0 mm
12:20 AM 83.7°F28.7°C 73.7°F23.2°C 72% 3.2 mph SW5.1 kmh SW 3.2 mph5.1 kmh 29.28 in991.5 mb 0.00 in0.0 mm 0.00 in0.0 mm 0.00 in0.0 mm
12:19 AM 83.8°F28.8°C 73.8°F23.2°C 72% Calm Calm 3.2 mph5.1 kmh 29.28 in991.5 mb 0.00 in0.0 mm 0.00 in0.0 mm 0.00 in0.0 mm
12:18 AM 83.8°F28.8°C 73.8°F23.2°C 72% Calm Calm 3.7 mph6.0 kmh 29.28 in991.5 mb 0.00 in0.0 mm 0.00 in0.0 mm 0.00 in0.0 mm
12:17 AM 83.8°F28.8°C 73.8°F23.2°C 72% Calm Calm 3.7 mph6.0 kmh 29.28 in991.5 mb 0.00 in0.0 mm 0.00 in0.0 mm 0.00 in0.0 mm
12:16 AM 83.8°F28.8°C 73.8°F23.2°C 72% 1.7 mph NE2.7 kmh NE 3.7 mph6.0 kmh 29.28 in991.5 mb 0.00 in0.0 mm 0.00 in0.0 mm 0.00 in0.0 mm
12:15 AM 84.0°F28.9°C 73.6°F23.1°C 71% 1.7 mph SW2.7 kmh SW 3.7 mph6.0 kmh 29.28 in991.5 mb 0.00 in0.0 mm 0.00 in0.0 mm 0.00 in0.0 mm
12:14 AM 84.0°F28.9°C 73.6°F23.1°C 71% Calm Calm 3.7 mph6.0 kmh 29.28 in991.5 mb 0.00 in0.0 mm 0.00 in0.0 mm 0.00 in0.0 mm
12:13 AM 84.0°F28.9°C 73.6°F23.1°C 71% Calm Calm 3.7 mph6.0 kmh 29.28 in991.5 mb 0.00 in0.0 mm 0.00 in0.0 mm 0.00 in0.0 mm
12:12 AM 84.0°F28.9°C 73.6°F23.1°C 71% 2.2 mph SW3.5 kmh SW 3.7 mph6.0 kmh 29.28 in991.5 mb 0.00 in0.0 mm 0.00 in0.0 mm 0.00 in0.0 mm
12:11 AM 84.0°F28.9°C 73.6°F23.1°C 71% 2.2 mph NNE3.5 kmh NNE 3.7 mph6.0 kmh 29.28 in991.5 mb 0.00 in0.0 mm 0.00 in0.0 mm 0.00 in0.0 mm
12:10 AM 84.0°F28.9°C 73.6°F23.1°C 71% 1.7 mph N2.7 kmh N 3.7 mph6.0 kmh 29.28 in991.5 mb 0.00 in0.0 mm 0.00 in0.0 mm 0.00 in0.0 mm
12:09 AM 84.2°F29.0°C 73.8°F23.2°C 71% Calm Calm 3.7 mph6.0 kmh 29.28 in991.5 mb 0.00 in0.0 mm 0.00 in0.0 mm 0.00 in0.0 mm
12:08 AM 84.2°F29.0°C 73.8°F23.2°C 71% 3.7 mph ENE6.0 kmh ENE 3.7 mph6.0 kmh 29.28 in991.5 mb 0.00 in0.0 mm 0.00 in0.0 mm 0.00 in0.0 mm
12:07 AM 84.2°F29.0°C 73.8°F23.2°C 71% Calm Calm 3.7 mph6.0 kmh 29.28 in991.5 mb 0.00 in0.0 mm 0.00 in0.0 mm 0.00 in0.0 mm
12:06 AM 84.2°F29.0°C 73.8°F23.2°C 71% Calm Calm 3.7 mph6.0 kmh 29.28 in991.5 mb 0.00 in0.0 mm 0.00 in0.0 mm 0.00 in0.0 mm
12:05 AM 84.4°F29.1°C 73.5°F23.1°C 70% 2.7 mph SSW4.3 kmh SSW 3.7 mph6.0 kmh 29.28 in991.5 mb 0.00 in0.0 mm 0.00 in0.0 mm 0.00 in0.0 mm
12:04 AM 84.4°F29.1°C 73.5°F23.1°C 70% 3.7 mph E6.0 kmh E 4.2 mph6.8 kmh 29.28 in991.5 mb 0.00 in0.0 mm 0.00 in0.0 mm 0.00 in0.0 mm
12:03 AM 84.4°F29.1°C 73.5°F23.1°C 70% 2.7 mph SW4.3 kmh SW 4.2 mph6.8 kmh 29.27 in991.2 mb 0.00 in0.0 mm 0.00 in0.0 mm 0.00 in0.0 mm
12:02 AM 84.4°F29.1°C 73.5°F23.1°C 70% 1.7 mph ENE2.7 kmh ENE 4.2 mph6.8 kmh 29.27 in991.2 mb 0.00 in0.0 mm 0.00 in0.0 mm 0.00 in0.0 mm
12:01 AM 84.4°F29.1°C 73.5°F23.1°C 70% 1.7 mph E2.7 kmh E 4.2 mph6.8 kmh 29.27 in991.2 mb 0.00 in0.0 mm 0.00 in0.0 mm 0.00 in0.0 mm
12:00 AM 84.4°F29.1°C 73.5°F23.1°C 70% 2.2 mph W3.5 kmh W 4.2 mph6.8 kmh 29.27 in991.2 mb 0.00 in0.0 mm 0.00 in0.0 mm 0.00 in0.0 mm